createdAt,value
2023-05-01T00:01:39.992Z,53.90
2023-05-01T00:04:07.018Z,54.35
2023-05-01T00:06:34.243Z,53.90
2023-05-01T00:09:01.205Z,54.75
2023-05-01T00:11:28.027Z,54.61
2023-05-01T00:13:54.798Z,55.34
2023-05-01T00:16:21.807Z,54.84
2023-05-01T00:18:48.657Z,55.04
2023-05-01T00:21:15.616Z,55.24
2023-05-01T00:23:42.393Z,54.87
2023-05-01T00:26:09.317Z,55.28
2023-05-01T00:28:36.136Z,55.41
2023-05-01T00:31:02.990Z,54.97
2023-05-01T00:33:29.822Z,54.81
2023-05-01T00:35:56.879Z,55.27
2023-05-01T00:38:24.320Z,54.75
2023-05-01T00:40:51.149Z,55.18
2023-05-01T00:43:17.984Z,54.93
2023-05-01T00:45:46.435Z,55.26
2023-05-01T00:48:14.039Z,54.93
2023-05-01T00:50:41.955Z,55.60
2023-05-01T00:53:08.834Z,55.59
2023-05-01T00:55:35.910Z,55.82
2023-05-01T00:58:03.778Z,56.02
2023-05-01T01:00:31.007Z,55.72
2023-05-01T01:02:57.908Z,55.78
2023-05-01T01:05:28.394Z,55.42
2023-05-01T01:08:16.845Z,56.09
2023-05-01T01:10:59.034Z,55.65
2023-05-01T01:13:51.187Z,55.96
2023-05-01T01:16:41.305Z,56.33
2023-05-01T01:19:29.163Z,57.30
2023-05-01T01:22:03.843Z,57.14
2023-05-01T01:25:23.626Z,57.32
2023-05-01T01:28:11.901Z,57.65
2023-05-01T01:30:49.623Z,57.38
2023-05-01T01:33:34.906Z,57.28
2023-05-01T01:36:11.844Z,57.40
2023-05-01T01:38:46.638Z,57.51
2023-05-01T01:41:31.890Z,57.84
2023-05-01T01:44:10.168Z,58.21
2023-05-01T01:46:40.063Z,58.66
2023-05-01T01:49:13.555Z,58.44
2023-05-01T01:51:42.273Z,58.47
2023-05-01T01:54:11.981Z,58.31
2023-05-01T01:56:42.264Z,58.17
2023-05-01T01:59:11.097Z,58.28
2023-05-01T02:01:41.544Z,58.82
2023-05-01T02:04:10.031Z,58.95
2023-05-01T02:06:39.512Z,58.77
2023-05-01T02:09:07.621Z,58.73
2023-05-01T02:11:37.738Z,59.33
2023-05-01T02:14:06.071Z,59.52
2023-05-01T02:16:35.286Z,58.70
2023-05-01T02:19:05.182Z,59.04
2023-05-01T02:21:37.403Z,59.28
2023-05-01T02:24:06.562Z,59.09
2023-05-01T02:26:43.010Z,59.83
2023-05-01T02:29:10.831Z,59.50
2023-05-01T02:31:37.799Z,59.52
2023-05-01T02:34:04.635Z,59.45
2023-05-01T02:36:33.309Z,60.17
2023-05-01T02:39:01.312Z,60.25
2023-05-01T02:41:29.568Z,60.28
2023-05-01T02:44:06.806Z,59.95
2023-05-01T02:46:37.388Z,59.94
2023-05-01T02:49:05.961Z,60.11
2023-05-01T02:51:33.493Z,60.14
2023-05-01T02:54:00.601Z,60.22
2023-05-01T02:56:28.057Z,60.21
2023-05-01T02:58:55.459Z,60.47
2023-05-01T03:01:22.589Z,60.97
2023-05-01T03:03:49.536Z,60.81
2023-05-01T03:06:17.004Z,60.35
2023-05-01T03:08:44.363Z,61.23
2023-05-01T03:11:11.184Z,60.75
2023-05-01T03:13:37.993Z,60.85
2023-05-01T03:16:05.248Z,61.21
2023-05-01T03:18:32.117Z,61.39
2023-05-01T03:20:58.949Z,61.06
2023-05-01T03:23:26.127Z,60.92
2023-05-01T03:25:54.736Z,61.37
2023-05-01T03:28:23.537Z,61.87
2023-05-01T03:30:53.981Z,61.60
2023-05-01T03:33:20.833Z,61.15
2023-05-01T03:35:48.043Z,61.85
2023-05-01T03:38:15.094Z,61.60
2023-05-01T03:40:41.935Z,61.74
2023-05-01T03:43:08.781Z,62.10
2023-05-01T03:45:35.565Z,62.09
2023-05-01T03:48:02.491Z,61.37
2023-05-01T03:50:29.321Z,61.25
2023-05-01T03:52:56.527Z,61.18
2023-05-01T03:55:23.411Z,61.29
2023-05-01T03:57:50.753Z,61.31
2023-05-01T04:00:18.036Z,61.63
2023-05-01T04:02:45.089Z,61.38
2023-05-01T04:05:12.339Z,61.59
2023-05-01T04:07:39.532Z,61.32
2023-05-01T04:10:09.548Z,61.29
2023-05-01T04:12:36.777Z,61.12
2023-05-01T04:15:04.217Z,61.34
2023-05-01T04:17:31.971Z,61.09
2023-05-01T04:19:59.138Z,61.38
2023-05-01T04:22:26.104Z,61.23
2023-05-01T04:24:53.017Z,61.25
2023-05-01T04:27:20.087Z,60.66
2023-05-01T04:29:46.954Z,60.73
2023-05-01T04:32:13.753Z,60.65
2023-05-01T04:34:40.599Z,60.54
2023-05-01T04:37:09.016Z,60.59
2023-05-01T04:39:36.474Z,60.30
2023-05-01T04:42:04.600Z,60.51
2023-05-01T04:44:34.155Z,60.23
2023-05-01T04:47:04.998Z,59.74
2023-05-01T04:49:32.137Z,59.67
2023-05-01T04:51:58.908Z,59.80
2023-05-01T04:54:25.768Z,59.12
2023-05-01T04:56:52.685Z,59.28
2023-05-01T04:59:19.544Z,59.05
2023-05-01T05:01:46.496Z,58.70
2023-05-01T05:04:13.570Z,58.36
2023-05-01T05:06:40.652Z,57.85
2023-05-01T05:09:07.607Z,58.02
2023-05-01T05:11:34.420Z,57.27
2023-05-01T05:14:01.247Z,56.39
2023-05-01T05:16:28.130Z,55.30
2023-05-01T05:18:57.352Z,55.38
2023-05-01T05:21:24.270Z,54.32
2023-05-01T05:23:51.120Z,54.27
2023-05-01T05:26:18.578Z,54.10
2023-05-01T05:28:45.732Z,53.71
2023-05-01T05:31:12.556Z,54.40
2023-05-01T05:33:39.345Z,53.73
2023-05-01T05:36:06.669Z,52.94
2023-05-01T05:38:33.530Z,53.46
2023-05-01T05:41:01.792Z,52.21
2023-05-01T05:43:28.682Z,52.25
2023-05-01T05:45:59.655Z,52.35
2023-05-01T05:48:27.635Z,52.13
2023-05-01T05:50:54.544Z,51.43
2023-05-01T05:53:23.013Z,51.14
2023-05-01T05:55:52.108Z,50.67
2023-05-01T05:58:23.118Z,50.60
2023-05-01T06:00:50.784Z,50.92
2023-05-01T06:03:17.691Z,50.41
2023-05-01T06:05:45.138Z,51.00
2023-05-01T06:08:12.543Z,50.30
2023-05-01T06:10:43.728Z,50.16
2023-05-01T06:13:13.159Z,49.85
2023-05-01T06:15:41.847Z,49.56
2023-05-01T06:18:09.171Z,49.30
2023-05-01T06:20:36.560Z,49.67
2023-05-01T06:23:03.517Z,49.71
2023-05-01T06:25:30.994Z,48.90
2023-05-01T06:27:57.886Z,49.94
2023-05-01T06:30:24.712Z,50.11
2023-05-01T06:32:51.606Z,50.01
2023-05-01T06:35:18.632Z,49.89
2023-05-01T06:37:45.558Z,49.82
2023-05-01T06:40:12.615Z,50.02
2023-05-01T06:42:40.386Z,50.52
2023-05-01T06:45:08.284Z,49.71
2023-05-01T06:47:35.741Z,50.71
2023-05-01T06:50:05.715Z,50.20
2023-05-01T06:52:32.796Z,50.05
2023-05-01T06:54:59.755Z,50.66
2023-05-01T06:57:26.574Z,49.78
2023-05-01T06:59:54.186Z,49.48
2023-05-01T07:02:21.386Z,50.92
2023-05-01T07:04:48.353Z,50.05
2023-05-01T07:07:15.197Z,50.49
2023-05-01T07:09:42.015Z,49.82
2023-05-01T07:12:08.906Z,49.83
2023-05-01T07:14:36.191Z,50.17
2023-05-01T07:17:03.653Z,50.17
2023-05-01T07:19:30.653Z,51.28
2023-05-01T07:21:57.735Z,51.19
2023-05-01T07:24:25.049Z,49.96
2023-05-01T07:26:51.928Z,50.21
2023-05-01T07:29:18.735Z,50.45
2023-05-01T07:31:48.274Z,51.24
2023-05-01T07:34:17.195Z,50.24
2023-05-01T07:36:44.080Z,49.72
2023-05-01T07:39:10.967Z,50.07
2023-05-01T07:41:37.866Z,49.58
2023-05-01T07:44:04.734Z,49.33
2023-05-01T07:46:32.065Z,49.91
2023-05-01T07:48:59.088Z,49.38
2023-05-01T07:51:25.949Z,47.99
2023-05-01T07:53:53.029Z,47.32
2023-05-01T07:56:19.919Z,47.95
2023-05-01T07:58:46.792Z,47.30
2023-05-01T08:01:13.775Z,47.21
2023-05-01T08:03:40.682Z,47.18
2023-05-01T08:06:07.712Z,46.59
2023-05-01T08:08:34.670Z,47.43
2023-05-01T08:11:01.508Z,47.24
2023-05-01T08:13:28.427Z,46.79
2023-05-01T08:15:55.389Z,49.38
2023-05-01T08:18:22.330Z,49.28
2023-05-01T08:20:49.885Z,47.27
2023-05-01T08:23:17.706Z,46.78
2023-05-01T08:25:50.703Z,47.75
2023-05-01T08:28:21.263Z,45.16
2023-05-01T08:30:49.428Z,46.92
2023-05-01T08:33:16.615Z,45.80
2023-05-01T08:35:43.572Z,45.66
2023-05-01T08:38:11.736Z,45.10
2023-05-01T08:40:41.200Z,45.88
2023-05-01T08:43:08.278Z,45.63
2023-05-01T08:45:38.249Z,45.16
2023-05-01T08:48:13.081Z,45.32
2023-05-01T08:50:41.457Z,46.49
2023-05-01T08:53:12.152Z,47.66
2023-05-01T08:55:39.807Z,47.95
2023-05-01T08:58:09.205Z,47.67
2023-05-01T09:00:37.184Z,47.29
2023-05-01T09:03:05.165Z,48.33
2023-05-01T09:05:33.536Z,47.77
2023-05-01T09:08:00.995Z,48.49
2023-05-01T09:10:31.758Z,50.21
2023-05-01T09:13:02.144Z,50.40
2023-05-01T09:15:30.703Z,49.51
2023-05-01T09:18:03.213Z,50.50
2023-05-01T09:20:32.504Z,48.89
2023-05-01T09:22:59.551Z,47.92
2023-05-01T09:25:26.478Z,48.15
2023-05-01T09:27:53.904Z,47.25
2023-05-01T09:30:39.790Z,48.74
2023-05-01T09:33:12.750Z,46.80
2023-05-01T09:35:51.856Z,46.90
2023-05-01T09:38:24.489Z,47.17
2023-05-01T09:40:56.640Z,47.82
2023-05-01T09:43:28.292Z,49.66
2023-05-01T09:46:09.316Z,49.98
2023-05-01T09:48:37.616Z,50.88
2023-05-01T09:51:27.525Z,49.57
2023-05-01T09:54:04.889Z,52.15
2023-05-01T09:56:34.386Z,51.50
2023-05-01T09:59:20.023Z,54.04
2023-05-01T10:01:50.098Z,53.13
2023-05-01T10:04:17.629Z,52.07
2023-05-01T10:06:44.499Z,52.69
2023-05-01T10:09:17.344Z,50.70
2023-05-01T10:11:49.451Z,52.80
2023-05-01T10:14:16.648Z,53.83
2023-05-01T10:16:44.460Z,53.64
2023-05-01T10:19:12.581Z,53.77
2023-05-01T10:21:39.479Z,53.04
2023-05-01T10:24:07.779Z,53.53
2023-05-01T10:26:35.047Z,55.71
2023-05-01T10:29:02.475Z,55.40
2023-05-01T10:31:29.975Z,55.80
2023-05-01T10:33:57.083Z,56.38
2023-05-01T10:36:33.252Z,58.27
2023-05-01T10:39:00.492Z,56.95
2023-05-01T10:41:58.206Z,56.92
2023-05-01T10:44:28.272Z,56.60
2023-05-01T10:46:55.537Z,59.53
2023-05-01T10:49:22.727Z,59.81
2023-05-01T10:52:00.064Z,59.84
2023-05-01T10:54:33.498Z,60.40
2023-05-01T10:57:02.863Z,61.95
2023-05-01T11:00:01.181Z,62.31
2023-05-01T11:02:28.201Z,61.75
2023-05-01T11:04:56.403Z,63.45
2023-05-01T11:07:24.844Z,63.13
2023-05-01T11:09:55.319Z,63.26
2023-05-01T11:12:50.947Z,62.91
2023-05-01T11:15:27.702Z,63.69
2023-05-01T11:17:55.862Z,63.11
2023-05-01T11:20:25.893Z,63.68
2023-05-01T11:22:57.348Z,63.98
2023-05-01T11:25:27.869Z,64.59
2023-05-01T11:28:03.312Z,64.01
2023-05-01T11:30:40.833Z,63.00
2023-05-01T11:33:10.574Z,63.48
2023-05-01T11:35:38.982Z,62.96
2023-05-01T11:38:06.731Z,64.02
2023-05-01T11:40:36.867Z,64.15
2023-05-01T11:43:08.542Z,64.89
2023-05-01T11:45:37.558Z,64.38
2023-05-01T11:48:14.812Z,64.79
2023-05-01T11:50:42.010Z,65.72
2023-05-01T11:53:17.514Z,66.41
2023-05-01T11:55:45.545Z,66.77
2023-05-01T11:58:13.256Z,67.95
2023-05-01T12:00:42.796Z,67.40
2023-05-01T12:03:11.919Z,66.22
2023-05-01T12:05:42.586Z,64.58
2023-05-01T12:08:21.784Z,64.66
2023-05-01T12:10:56.133Z,65.43
2023-05-01T12:13:24.183Z,66.75
2023-05-01T12:15:55.500Z,65.33
2023-05-01T12:18:22.876Z,66.60
2023-05-01T12:20:52.971Z,67.15
2023-05-01T12:23:31.863Z,68.16
2023-05-01T12:25:58.785Z,66.30
2023-05-01T12:28:27.592Z,66.52
2023-05-01T12:31:04.709Z,66.58
2023-05-01T12:33:32.901Z,66.56
2023-05-01T12:36:13.112Z,66.58
2023-05-01T12:38:39.977Z,66.33
2023-05-01T12:41:09.390Z,65.58
2023-05-01T12:43:38.171Z,64.20
2023-05-01T12:46:06.877Z,64.92
2023-05-01T12:48:40.170Z,64.94
2023-05-01T12:51:07.648Z,64.28
2023-05-01T12:53:34.572Z,63.59
2023-05-01T12:56:03.238Z,65.63
2023-05-01T12:58:37.234Z,65.05
2023-05-01T13:01:04.485Z,64.59
2023-05-01T13:03:32.064Z,66.12
2023-05-01T13:06:01.315Z,65.86
2023-05-01T13:08:36.117Z,64.71
2023-05-01T13:11:15.031Z,66.00
2023-05-01T13:13:44.278Z,65.37
2023-05-01T13:16:16.292Z,64.01
2023-05-01T13:18:48.935Z,63.31
2023-05-01T13:21:21.486Z,62.11
2023-05-01T13:24:00.925Z,61.12
2023-05-01T13:26:35.180Z,61.42
2023-05-01T13:29:05.556Z,60.61
2023-05-01T13:31:32.620Z,61.52
2023-05-01T13:34:00.327Z,63.14
2023-05-01T13:36:35.143Z,64.96
2023-05-01T13:39:03.268Z,63.96
2023-05-01T13:41:30.545Z,61.63
2023-05-01T13:43:57.619Z,61.92
2023-05-01T13:46:27.106Z,61.93
2023-05-01T13:48:54.123Z,63.16
2023-05-01T13:51:26.398Z,60.59
2023-05-01T13:53:54.148Z,62.07
2023-05-01T13:56:21.766Z,64.27
2023-05-01T13:58:50.256Z,63.36
2023-05-01T14:01:23.354Z,63.60
2023-05-01T14:03:50.692Z,66.39
2023-05-01T14:06:21.159Z,66.33
2023-05-01T14:08:49.180Z,68.34
2023-05-01T14:11:16.385Z,65.74
2023-05-01T14:13:46.449Z,65.63
2023-05-01T14:16:28.133Z,65.90
2023-05-01T14:18:57.030Z,65.57
2023-05-01T14:21:28.173Z,64.05
2023-05-01T14:23:56.942Z,61.61
2023-05-01T14:26:24.645Z,61.57
2023-05-01T14:28:51.653Z,62.16
2023-05-01T14:31:25.310Z,60.68
2023-05-01T14:34:02.192Z,62.58
2023-05-01T14:36:32.999Z,62.75
2023-05-01T14:39:02.429Z,60.24
2023-05-01T14:41:30.310Z,60.19
2023-05-01T14:43:57.453Z,61.54
2023-05-01T14:46:30.622Z,61.41
2023-05-01T14:48:59.506Z,62.84
2023-05-01T14:51:31.532Z,61.19
2023-05-01T14:53:58.589Z,60.28
2023-05-01T14:56:25.625Z,60.73
2023-05-01T14:58:52.588Z,61.82
2023-05-01T15:01:20.196Z,61.51
2023-05-01T15:03:47.383Z,61.82
2023-05-01T15:06:14.544Z,60.88
2023-05-01T15:08:41.655Z,58.25
2023-05-01T15:11:08.806Z,58.86
2023-05-01T15:13:36.346Z,61.53
2023-05-01T15:16:03.704Z,61.83
2023-05-01T15:18:30.556Z,59.03
2023-05-01T15:20:57.464Z,60.38
2023-05-01T15:23:27.212Z,62.90
2023-05-01T15:25:54.481Z,61.35
2023-05-01T15:28:21.533Z,61.28
2023-05-01T15:30:48.351Z,61.21
2023-05-01T15:33:18.014Z,60.55
2023-05-01T15:35:46.880Z,60.16
2023-05-01T15:38:13.795Z,60.78
2023-05-01T15:40:43.586Z,61.29
2023-05-01T15:43:10.419Z,62.08
2023-05-01T15:45:42.867Z,62.18
2023-05-01T15:48:11.308Z,60.93
2023-05-01T15:50:38.260Z,60.56
2023-05-01T15:53:05.150Z,61.41
2023-05-01T15:55:32.125Z,61.17
2023-05-01T15:57:59.577Z,61.33
2023-05-01T16:00:26.465Z,62.82
2023-05-01T16:02:53.336Z,62.76
2023-05-01T16:05:21.415Z,62.59
2023-05-01T16:07:55.762Z,61.45
2023-05-01T16:10:23.466Z,62.71
2023-05-01T16:12:50.982Z,61.77
2023-05-01T16:15:18.369Z,62.42
2023-05-01T16:17:46.454Z,63.25
2023-05-01T16:20:14.897Z,64.43
2023-05-01T16:22:43.243Z,64.84
2023-05-01T16:25:11.578Z,62.92
2023-05-01T16:27:47.683Z,62.63
2023-05-01T16:30:14.962Z,64.74
2023-05-01T16:32:43.206Z,64.72
2023-05-01T16:35:18.323Z,63.65
2023-05-01T16:37:45.305Z,63.12
2023-05-01T16:40:17.679Z,63.80
2023-05-01T16:42:51.932Z,63.09
2023-05-01T16:45:19.392Z,63.14
2023-05-01T16:47:46.558Z,62.15
2023-05-01T16:50:14.055Z,62.31
2023-05-01T16:52:44.066Z,61.66
2023-05-01T16:55:11.560Z,61.14
2023-05-01T16:57:38.434Z,61.37
2023-05-01T17:00:08.800Z,62.28
2023-05-01T17:02:36.530Z,61.95
2023-05-01T17:05:03.774Z,62.40
2023-05-01T17:07:31.006Z,61.69
2023-05-01T17:09:58.754Z,61.75
2023-05-01T17:12:27.638Z,62.12
2023-05-01T17:14:54.710Z,62.34
2023-05-01T17:17:22.356Z,63.66
2023-05-01T17:19:49.427Z,63.29
2023-05-01T17:22:16.350Z,63.50
2023-05-01T17:24:43.198Z,64.39
2023-05-01T17:27:10.000Z,64.67
2023-05-01T17:29:36.893Z,65.74
2023-05-01T17:32:04.592Z,66.15
2023-05-01T17:34:31.475Z,66.51
2023-05-01T17:36:58.349Z,66.19
2023-05-01T17:39:26.930Z,66.60
2023-05-01T17:41:53.788Z,66.99
2023-05-01T17:44:23.570Z,67.09
2023-05-01T17:46:51.066Z,67.28
2023-05-01T17:49:17.953Z,67.81
2023-05-01T17:51:45.195Z,68.23
2023-05-01T17:54:12.311Z,68.12
2023-05-01T17:56:39.089Z,68.70
2023-05-01T17:59:05.915Z,68.44
2023-05-01T18:01:33.191Z,68.37
2023-05-01T18:04:00.159Z,67.83
2023-05-01T18:06:27.319Z,68.78
2023-05-01T18:08:54.202Z,68.86
2023-05-01T18:11:21.113Z,69.08
2023-05-01T18:13:48.173Z,69.25
2023-05-01T18:16:15.792Z,69.32
2023-05-01T18:18:42.965Z,69.19
2023-05-01T18:21:10.088Z,69.58
2023-05-01T18:23:38.656Z,69.45
2023-05-01T18:26:06.948Z,69.97
2023-05-01T18:28:34.596Z,70.32
2023-05-01T18:31:01.683Z,70.06
2023-05-01T18:33:28.641Z,71.00
2023-05-01T18:35:57.207Z,70.97
2023-05-01T18:38:25.454Z,71.24
2023-05-01T18:40:54.000Z,73.34
2023-05-01T18:43:20.840Z,72.69
2023-05-01T18:45:48.890Z,72.28
2023-05-01T18:48:16.060Z,72.78
2023-05-01T18:50:45.764Z,73.14
2023-05-01T18:53:16.215Z,73.25
2023-05-01T18:55:43.493Z,73.31
2023-05-01T18:58:10.546Z,73.34
2023-05-01T19:00:37.358Z,74.31
2023-05-01T19:03:04.402Z,74.08
2023-05-01T19:05:31.439Z,73.89
2023-05-01T19:08:01.774Z,73.85
2023-05-01T19:10:28.689Z,73.79
2023-05-01T19:12:55.718Z,74.09
2023-05-01T19:15:22.616Z,73.77
2023-05-01T19:17:49.525Z,73.71
2023-05-01T19:20:16.503Z,73.15
2023-05-01T19:22:43.392Z,72.74
2023-05-01T19:25:10.353Z,72.79
2023-05-01T19:27:37.314Z,72.72
2023-05-01T19:30:05.790Z,72.86
2023-05-01T19:32:32.630Z,72.99
2023-05-01T19:34:59.747Z,73.47
2023-05-01T19:37:29.751Z,73.29
2023-05-01T19:39:56.778Z,73.53
2023-05-01T19:42:23.796Z,73.60
2023-05-01T19:44:50.715Z,74.40
2023-05-01T19:47:17.684Z,74.54
2023-05-01T19:49:45.040Z,74.86
2023-05-01T19:52:11.881Z,75.55
2023-05-01T19:54:38.767Z,76.00
2023-05-01T19:57:05.833Z,75.32
2023-05-01T19:59:32.921Z,75.07
2023-05-01T20:02:01.488Z,75.04
2023-05-01T20:04:28.769Z,74.88
2023-05-01T20:06:55.697Z,75.96
2023-05-01T20:09:22.894Z,75.03
2023-05-01T20:11:49.758Z,74.94
2023-05-01T20:14:16.610Z,74.89
2023-05-01T20:16:43.493Z,75.45
2023-05-01T20:19:10.623Z,75.60
2023-05-01T20:21:37.459Z,75.05
2023-05-01T20:24:04.509Z,74.76
2023-05-01T20:26:31.466Z,75.33
2023-05-01T20:28:58.890Z,74.73
2023-05-01T20:31:25.814Z,75.50
2023-05-01T20:33:53.040Z,74.93
2023-05-01T20:36:20.509Z,75.24
2023-05-01T20:38:48.714Z,76.48
2023-05-01T20:41:17.122Z,76.78
2023-05-01T20:43:44.664Z,76.06
2023-05-01T20:46:12.457Z,76.12
2023-05-01T20:48:39.330Z,75.50
2023-05-01T20:51:06.251Z,75.25
2023-05-01T20:53:33.131Z,74.28
2023-05-01T20:55:59.969Z,75.23
2023-05-01T20:58:26.815Z,75.48
2023-05-01T21:00:55.255Z,75.61
2023-05-01T21:03:22.416Z,76.58
2023-05-01T21:05:49.358Z,75.34
2023-05-01T21:08:16.274Z,75.33
2023-05-01T21:10:43.121Z,76.01
2023-05-01T21:13:10.109Z,75.21
2023-05-01T21:15:41.281Z,75.18
2023-05-01T21:18:11.334Z,75.08
2023-05-01T21:20:39.704Z,74.76
2023-05-01T21:23:06.575Z,74.69
2023-05-01T21:25:33.645Z,74.76
2023-05-01T21:28:03.240Z,75.00
2023-05-01T21:30:33.445Z,74.92
2023-05-01T21:33:02.633Z,75.95
2023-05-01T21:35:30.364Z,75.45
2023-05-01T21:38:00.566Z,75.23
2023-05-01T21:40:27.602Z,74.91
2023-05-01T21:42:55.142Z,74.89
2023-05-01T21:45:22.728Z,75.23
2023-05-01T21:47:51.354Z,75.47
2023-05-01T21:50:21.145Z,75.29
2023-05-01T21:52:49.745Z,75.20
2023-05-01T21:55:21.311Z,74.99
2023-05-01T21:57:50.200Z,75.14
2023-05-01T22:00:18.988Z,74.75
2023-05-01T22:02:48.590Z,74.51
2023-05-01T22:05:18.373Z,74.66
2023-05-01T22:07:47.061Z,75.12
2023-05-01T22:10:18.135Z,75.12
2023-05-01T22:12:45.685Z,74.77
2023-05-01T22:15:15.294Z,74.99
2023-05-01T22:17:42.445Z,74.93
2023-05-01T22:20:09.783Z,75.35
2023-05-01T22:22:38.898Z,75.25
2023-05-01T22:25:06.718Z,75.51
2023-05-01T22:27:34.414Z,75.47
2023-05-01T22:30:02.381Z,75.63
2023-05-01T22:32:29.624Z,75.41
2023-05-01T22:34:56.707Z,75.86
2023-05-01T22:37:25.397Z,75.95
2023-05-01T22:39:53.432Z,76.86
2023-05-01T22:42:20.757Z,77.12
2023-05-01T22:44:47.628Z,76.27
2023-05-01T22:47:14.533Z,76.11
2023-05-01T22:49:41.551Z,76.30
2023-05-01T22:52:08.325Z,75.80
2023-05-01T22:54:35.383Z,76.32
2023-05-01T22:57:02.575Z,76.49
2023-05-01T22:59:29.441Z,76.44
2023-05-01T23:01:56.557Z,76.85
2023-05-01T23:04:23.476Z,76.06
2023-05-01T23:06:50.448Z,76.63
2023-05-01T23:09:17.777Z,76.53
2023-05-01T23:11:47.643Z,76.28
2023-05-01T23:14:18.071Z,75.85
2023-05-01T23:16:44.916Z,76.42
2023-05-01T23:19:23.344Z,76.15
2023-05-01T23:22:04.101Z,76.08
2023-05-01T23:24:48.428Z,76.32
2023-05-01T23:27:19.823Z,76.33
2023-05-01T23:29:54.900Z,75.92
2023-05-01T23:32:30.368Z,76.30
2023-05-01T23:35:15.673Z,76.26
2023-05-01T23:37:43.752Z,76.25
2023-05-01T23:40:11.103Z,75.76
2023-05-01T23:42:39.294Z,75.86
2023-05-01T23:45:08.093Z,76.08
2023-05-01T23:47:35.636Z,76.01
2023-05-01T23:50:03.174Z,76.59
2023-05-01T23:52:30.198Z,76.30
2023-05-01T23:54:57.104Z,75.68
2023-05-01T23:57:24.032Z,76.69
2023-05-01T23:59:50.841Z,75.90
